Normangee, TX

5:06 PM CDT on April 18, 2015 (GMT -0500)
Hearne | | Change Station
CLOSE
Current Station
Airport
Location: Hearne,
Elevation: 285 ft
Nearby Weather Stations

Elev 285 ft 30.87 °N, 96.62 °W | Updated 11 minutes ago

Partly Cloudy
Partly Cloudy
76 °F
Feels Like 76 °F
N
4
Wind Variable Wind from SE

Today
High -- | Low -- °F
--% Chance of Precip.
Yesterday
High -- | Low -- °F
Precip. -- in
6:53 AM 7:54 PM
New Moon, 0% visible
Pressure 29.78 in
Visibility 10.0 miles
Clouds Scattered Clouds 2400 ft
Scattered Clouds 3100 ft
Dew Point 67 °F
Humidity 73%
Rainfall 0.00 in
Snow Depth Not available.
UV 4 out of 12
Pollen 6.70 out of 12
Air Quality Not available.
Flu Activity Local Activity
METAR KLHB 182155Z AUTO 13003KT 10SM SCT024 SCT031 25/19 A2978 RMK AO2 T02450194

More Conditions Fewer Conditions

Pressure 29.78 in
Visibility 10.0 miles
Clouds Scattered Clouds 2400 ft
Scattered Clouds 3100 ft
Dew Point 67 °F
Humidity 73%
Rainfall 0.00 in
Snow Depth Not available.
UV 4 out of 12
Pollen 6.70 out of 12
Air Quality Not available.
Flu Activity Local Activity
METAR KLHB 182155Z AUTO 13003KT 10SM SCT024 SCT031 25/19 A2978 RMK AO2 T02450194

More Conditions Fewer Conditions

10-Day Weather Forecast

Almanac

Astronomy

Apr. 18, 2015 Rise Set
Actual Time
Civil Twilight
Nautical Twilight
Astronomical Twilight
Moon
Length of Visible Light
Length of Day
Tomorrow will be .
, % of the Moon is Illuminated

Today's Extremes

State Highs State Lows

Community

WunderPhotos

Upload Photos

1,814,549 photos uploaded!

WunderBlogs® & News

Nearby

Air Quality

  Air Quality AQ Index Pollutant
Not available.

Snow Depth

Station Depth Elevation

Earthquake Activity

City Distance Mag. Time & Date
Minimum magnitude displayed is 2.5.

Coastal Water Temperatures

Place Temperature

Stations

Nearby Weather Stations

Station Location Temp. Windchill Dew Point Humidity Wind Precip. Elev Updated Type